Time;durP1;ratioP1;P1;durP2;ratioP2;P2;SDS_P1;SDS_P2;PMS_P1;PMS_P2;Temp;Humidity;BMP_temperature;BMP_pressure;BME280_temperature;BME280_humidity;BME280_pressure;Samples;Min_cycle;Max_cycle;Signal;HPM_P1;HPM_P2
2021/11/06 00:01:49;;;;;;;1.85;0.73;;;;;;;11.10;100.00;100845.44;5115366;27;20448;-48
2021/11/06 00:04:51;;;;;;;2.60;1.98;;;;;;;11.12;100.00;100838.19;5114847;27;20047;-49
2021/11/06 00:07:55;;;;;;;2.53;1.02;;;;;;;11.11;100.00;100841.44;5115028;28;20518;-48
2021/11/06 00:10:59;;;;;;;1.02;0.70;;;;;;;11.06;100.00;100837.22;5114572;27;20053;-48
2021/11/06 00:14:03;;;;;;;0.98;0.77;;;;;;;10.97;100.00;100844.72;5115001;27;20101;-48
2021/11/06 00:17:06;;;;;;;4.32;1.48;;;;;;;10.99;100.00;100836.69;5114364;28;20058;-48
2021/11/06 00:20:11;;;;;;;4.70;1.30;;;;;;;10.95;100.00;100836.03;5115022;28;20101;-48
2021/11/06 00:23:15;;;;;;;3.33;1.05;;;;;;;10.88;100.00;100839.09;5115151;27;20042;-48
2021/11/06 00:26:18;;;;;;;2.92;1.15;;;;;;;10.86;100.00;100845.13;5114785;28;20459;-48
2021/11/06 00:29:20;;;;;;;2.72;1.33;;;;;;;10.81;100.00;100830.97;5114136;27;20050;-48
2021/11/06 00:32:24;;;;;;;2.20;1.15;;;;;;;10.73;100.00;100835.25;5114323;28;20084;-48
2021/11/06 00:35:27;;;;;;;0.65;0.63;;;;;;;10.66;100.00;100841.88;5114281;27;20155;-48
2021/11/06 00:38:30;;;;;;;3.50;1.15;;;;;;;10.62;100.00;100833.66;5114742;28;20054;-48
2021/11/06 00:41:33;;;;;;;1.13;0.77;;;;;;;10.58;100.00;100827.44;5114339;28;20557;-48
2021/11/06 00:44:37;;;;;;;0.38;0.30;;;;;;;10.53;100.00;100825.22;5114195;27;20043;-47
2021/11/06 00:47:41;;;;;;;1.63;0.73;;;;;;;10.53;100.00;100824.41;5113244;28;20054;-48
2021/11/06 00:50:44;;;;;;;2.85;1.08;;;;;;;10.47;100.00;100813.09;5114116;27;20090;-48
2021/11/06 00:53:47;;;;;;;2.42;0.73;;;;;;;10.49;100.00;100816.19;5101552;28;20560;-48
2021/11/06 00:56:50;;;;;;;4.40;1.75;;;;;;;10.48;100.00;100817.41;5114086;28;20070;-48
2021/11/06 00:59:53;;;;;;;1.73;0.90;;;;;;;10.45;100.00;100815.56;5082447;28;20042;-48
2021/11/06 01:02:56;;;;;;;0.77;0.50;;;;;;;10.46;100.00;100811.53;5090479;27;20326;-48
2021/11/06 01:05:59;;;;;;;0.57;0.57;;;;;;;10.50;100.00;100828.88;5097848;27;20525;-48
2021/11/06 01:09:03;;;;;;;1.38;0.88;;;;;;;10.49;100.00;100826.56;5078388;27;20035;-48
2021/11/06 01:12:06;;;;;;;1.00;0.50;;;;;;;10.52;100.00;100822.88;5074867;27;20162;-48
2021/11/06 01:15:12;;;;;;;0.90;0.52;;;;;;;10.56;100.00;100810.38;5076567;28;20521;-48
2021/11/06 01:18:15;;;;;;;0.63;0.47;;;;;;;10.56;100.00;100813.19;5074963;28;20859;-48
2021/11/06 01:21:18;;;;;;;1.13;0.57;;;;;;;10.57;100.00;100811.94;5085089;27;20458;-48
2021/11/06 01:24:21;;;;;;;2.05;0.85;;;;;;;10.57;100.00;100806.34;5075233;28;20810;-48
2021/11/06 01:27:24;;;;;;;5.53;0.80;;;;;;;10.55;100.00;100797.69;5076068;28;20128;-48
2021/11/06 01:30:27;;;;;;;1.20;0.85;;;;;;;10.54;100.00;100796.13;5074246;27;20051;-47
2021/11/06 01:33:30;;;;;;;1.75;0.57;;;;;;;10.51;100.00;100791.47;5073087;28;20775;-48
2021/11/06 01:36:34;;;;;;;2.10;0.82;;;;;;;10.53;100.00;100789.00;5072926;27;20050;-48
2021/11/06 01:39:37;;;;;;;1.67;0.68;;;;;;;10.52;100.00;100789.47;5072653;28;20082;-48
2021/11/06 01:42:41;;;;;;;1.58;0.85;;;;;;;10.51;100.00;100785.88;5073575;28;20045;-48
2021/11/06 01:45:44;;;;;;;0.20;0.20;;;;;;;10.56;100.00;100781.75;5074829;28;20038;-48
2021/11/06 01:48:47;;;;;;;2.97;0.70;;;;;;;10.57;100.00;100772.94;5074005;28;20042;-48
2021/11/06 01:51:52;;;;;;;1.05;0.50;;;;;;;10.57;100.00;100775.72;5074091;28;20043;-48
2021/11/06 01:54:55;;;;;;;0.43;0.43;;;;;;;10.53;100.00;100771.50;5074334;27;20426;-48
2021/11/06 01:58:00;;;;;;;0.30;0.30;;;;;;;10.52;100.00;100767.97;5074076;28;20575;-48
2021/11/06 02:01:03;;;;;;;0.50;0.32;;;;;;;10.50;100.00;100767.63;5059399;28;20147;-48
2021/11/06 02:04:06;;;;;;;0.70;0.35;;;;;;;10.50;100.00;100773.19;5073540;28;20184;-48
2021/11/06 02:07:09;;;;;;;0.73;0.43;;;;;;;10.52;100.00;100770.75;5072751;28;20112;-48
2021/11/06 02:10:14;;;;;;;1.73;0.22;;;;;;;10.54;100.00;100773.06;5074356;28;20043;-48
2021/11/06 02:13:18;;;;;;;1.35;0.93;;;;;;;10.57;100.00;100767.38;5106672;28;20135;-47
2021/11/06 02:16:22;;;;;;;0.10;0.10;;;;;;;10.59;100.00;100769.69;5123433;28;20039;-48
2021/11/06 02:19:31;;;;;;;1.48;0.77;;;;;;;10.61;100.00;100761.69;5113213;28;20441;-48
2021/11/06 02:22:34;;;;;;;0.82;0.30;;;;;;;10.65;100.00;100763.09;5112718;28;20039;-48
2021/11/06 02:25:37;;;;;;;2.40;0.70;;;;;;;10.68;100.00;100769.75;5111868;28;20108;-54
2021/11/06 02:28:44;;;;;;;0.10;0.10;;;;;;;10.70;100.00;100752.59;5112837;28;20441;-54
2021/11/06 02:31:47;;;;;;;1.08;0.80;;;;;;;10.70;100.00;100756.16;5112527;28;20039;-54
2021/11/06 02:34:51;;;;;;;0.20;0.20;;;;;;;10.63;100.00;100751.63;5112276;28;20038;-54
2021/11/06 02:37:54;;;;;;;0.45;0.45;;;;;;;10.57;100.00;100756.22;5111875;28;20047;-54
2021/11/06 02:40:57;;;;;;;0.30;0.30;;;;;;;10.58;100.00;100757.78;5112321;28;20051;-54
2021/11/06 02:44:11;;;;;;;0.47;0.43;;;;;;;10.55;100.00;100761.47;5112324;28;20455;-54
2021/11/06 02:47:14;;;;;;;1.23;0.65;;;;;;;10.54;100.00;100765.50;5112730;28;20077;-54
2021/11/06 02:50:17;;;;;;;0.22;0.15;;;;;;;10.55;100.00;100764.25;5100442;28;20054;-54
2021/11/06 02:53:21;;;;;;;0.30;0.20;;;;;;;10.55;100.00;100753.13;5112612;28;20407;-54
2021/11/06 02:56:28;;;;;;;1.45;0.88;;;;;;;10.59;100.00;100750.97;5112738;28;20581;-54
2021/11/06 02:59:31;;;;;;;0.75;0.47;;;;;;;10.62;100.00;100750.06;5112443;28;20046;-54
2021/11/06 03:02:34;;;;;;;1.75;0.50;;;;;;;10.61;100.00;100740.16;5112481;28;20092;-54
2021/11/06 03:05:37;;;;;;;0.40;0.28;;;;;;;10.64;100.00;100744.81;5112002;28;20499;-54
2021/11/06 03:08:40;;;;;;;0.75;0.73;;;;;;;10.61;100.00;100744.97;5112335;28;20042;-54
2021/11/06 03:11:44;;;;;;;2.10;0.43;;;;;;;10.60;100.00;100730.25;5114146;28;20051;-54
2021/11/06 03:14:47;;;;;;;0.13;0.13;;;;;;;10.57;100.00;100728.38;5116184;27;20479;-54
2021/11/06 03:17:50;;;;;;;0.22;0.20;;;;;;;10.52;100.00;100726.19;5115885;28;20038;-54
2021/11/06 03:20:53;;;;;;;0.68;0.40;;;;;;;10.62;100.00;100719.44;5122422;27;20123;-54
2021/11/06 03:23:56;;;;;;;0.55;0.55;;;;;;;10.66;100.00;100720.06;5120379;27;20127;-54
2021/11/06 03:26:59;;;;;;;1.65;0.55;;;;;;;10.77;100.00;100724.47;5116107;28;20543;-53
2021/11/06 03:30:09;;;;;;;1.77;0.50;;;;;;;10.86;100.00;100716.16;5115516;27;20396;-54
2021/11/06 03:33:12;;;;;;;3.30;0.63;;;;;;;10.86;100.00;100700.22;5115656;28;20047;-54
2021/11/06 03:36:15;;;;;;;3.30;1.10;;;;;;;10.94;100.00;100703.50;5115327;27;20059;-54
2021/11/06 03:39:19;;;;;;;1.60;0.88;;;;;;;10.96;100.00;100698.28;5115606;28;20449;-54
2021/11/06 03:42:22;;;;;;;2.92;0.32;;;;;;;10.97;100.00;100702.59;5115521;27;20043;-54
2021/11/06 03:45:25;;;;;;;1.33;0.95;;;;;;;11.01;100.00;100695.66;5115315;28;20050;-54
2021/11/06 03:48:28;;;;;;;0.45;0.45;;;;;;;11.01;100.00;100697.66;5115108;28;20058;-54
2021/11/06 03:51:31;;;;;;;4.22;1.00;;;;;;;11.06;100.00;100691.50;5115655;27;20089;-54
2021/11/06 03:54:34;;;;;;;3.33;1.40;;;;;;;11.11;100.00;100690.91;5115188;28;20112;-54
2021/11/06 03:57:37;;;;;;;6.07;0.82;;;;;;;11.16;100.00;100684.69;5115539;28;20042;-54
2021/11/06 04:00:41;;;;;;;0.40;0.40;;;;;;;11.19;100.00;100689.38;5115472;27;20085;-54
2021/11/06 04:03:44;;;;;;;0.55;0.52;;;;;;;11.16;100.00;100690.28;5102537;28;20062;-54
2021/11/06 04:06:47;;;;;;;3.13;0.82;;;;;;;11.12;100.00;100684.06;5115093;28;20038;-54
2021/11/06 04:09:50;;;;;;;19.20;1.30;;;;;;;11.05;100.00;100675.97;5115241;28;20123;-54
2021/11/06 04:12:53;;;;;;;1.50;0.75;;;;;;;11.06;100.00;100685.91;5115157;28;20054;-54
2021/11/06 04:15:56;;;;;;;4.13;0.90;;;;;;;11.07;100.00;100687.44;5114675;27;20588;-54
2021/11/06 04:18:59;;;;;;;7.47;0.70;;;;;;;11.14;100.00;100676.03;5114804;27;20058;-54
2021/11/06 04:22:02;;;;;;;1.23;0.30;;;;;;;11.10;100.00;100678.19;5116857;27;20109;-54
2021/11/06 04:25:07;;;;;;;4.70;1.02;;;;;;;11.05;100.00;100675.97;5115223;28;20454;-54
2021/11/06 04:28:10;;;;;;;0.82;0.82;;;;;;;11.00;100.00;100671.78;5114591;28;20039;-54
2021/11/06 04:31:14;;;;;;;2.20;0.93;;;;;;;10.98;100.00;100676.28;5120499;27;20046;-54
2021/11/06 04:34:18;;;;;;;0.57;0.47;;;;;;;11.00;100.00;100673.81;5119514;27;20077;-54
2021/11/06 04:37:21;;;;;;;3.63;0.68;;;;;;;10.98;100.00;100673.50;5114438;28;20392;-54
2021/11/06 04:40:24;;;;;;;9.48;0.77;;;;;;;10.98;100.00;100681.88;5114548;28;20043;-54
2021/11/06 04:43:27;;;;;;;4.53;1.15;;;;;;;10.99;100.00;100673.03;5121994;27;20038;-54
2021/11/06 04:46:30;;;;;;;3.17;0.55;;;;;;;10.97;100.00;100677.50;5118311;27;20117;-54
2021/11/06 04:49:33;;;;;;;5.63;0.63;;;;;;;10.97;100.00;100683.09;5113824;28;20034;-54
2021/11/06 04:52:36;;;;;;;3.60;1.42;;;;;;;10.96;100.00;100671.16;5114145;27;20081;-54
2021/11/06 04:55:40;;;;;;;1.10;0.85;;;;;;;10.99;100.00;100675.03;5114485;27;20143;-53
2021/11/06 04:58:43;;;;;;;4.82;0.95;;;;;;;11.02;100.00;100671.34;5113965;28;20121;-54
2021/11/06 05:01:46;;;;;;;6.22;1.08;;;;;;;10.99;100.00;100672.25;5125511;27;20507;-54
2021/11/06 05:04:49;;;;;;;0.47;0.47;;;;;;;11.00;100.00;100671.03;5113546;27;20088;-54
2021/11/06 05:07:52;;;;;;;6.05;0.88;;;;;;;10.99;100.00;100666.69;5114050;27;20042;-54
2021/11/06 05:10:55;;;;;;;0.57;0.43;;;;;;;10.99;100.00;100669.47;5113527;28;20039;-54
2021/11/06 05:13:59;;;;;;;3.60;1.88;;;;;;;11.00;100.00;100663.41;5113947;28;20050;-54
2021/11/06 05:17:03;;;;;;;4.30;1.20;;;;;;;10.99;100.00;100667.47;5113505;27;20042;-54
2021/11/06 05:20:07;;;;;;;4.13;1.15;;;;;;;11.01;100.00;100653.06;5113812;28;20328;-54
2021/11/06 05:23:12;;;;;;;1.17;0.57;;;;;;;11.00;100.00;100643.91;5112798;28;20139;-54
2021/11/06 05:26:15;;;;;;;2.65;0.70;;;;;;;11.00;100.00;100643.16;5113704;27;20041;-54
2021/11/06 05:29:19;;;;;;;11.32;1.33;;;;;;;10.97;100.00;100639.28;5100574;27;20030;-54
2021/11/06 05:32:23;;;;;;;2.15;0.93;;;;;;;10.97;100.00;100635.72;5113686;28;20428;-54
2021/11/06 05:35:26;;;;;;;3.30;0.82;;;;;;;11.00;100.00;100629.22;5113046;27;20042;-54
2021/11/06 05:38:29;;;;;;;5.47;0.68;;;;;;;11.01;100.00;100630.75;5113550;28;20043;-54
2021/11/06 05:41:32;;;;;;;0.30;0.20;;;;;;;11.00;100.00;100629.22;5113483;28;20085;-55
2021/11/06 05:44:35;;;;;;;1.05;0.77;;;;;;;11.00;100.00;100634.78;5113447;27;20068;-54
2021/11/06 05:47:39;;;;;;;4.22;1.25;;;;;;;11.03;100.00;100636.66;5113167;28;20039;-54
2021/11/06 05:50:42;;;;;;;1.08;0.35;;;;;;;11.02;100.00;100623.97;5113294;28;20092;-54
2021/11/06 05:53:45;;;;;;;0.85;0.82;;;;;;;11.07;100.00;100620.56;5112657;28;20039;-54
2021/11/06 05:56:48;;;;;;;0.57;0.47;;;;;;;11.10;100.00;100633.59;5113133;28;20127;-54
2021/11/06 05:59:50;;;;;;;3.30;1.13;;;;;;;11.12;100.00;100628.31;5112718;28;20096;-54
2021/11/06 06:02:53;;;;;;;1.00;0.63;;;;;;;11.12;100.00;100622.75;5113465;28;20107;-54
2021/11/06 06:05:56;;;;;;;2.08;0.90;;;;;;;11.09;100.00;100618.06;5113093;28;20098;-54
2021/11/06 06:08:59;;;;;;;3.80;1.77;;;;;;;11.09;100.00;100615.28;5113031;28;20069;-54
2021/11/06 06:12:03;;;;;;;1.38;0.43;;;;;;;11.08;100.00;100619.31;5112500;28;20150;-54
2021/11/06 06:15:07;;;;;;;0.95;0.65;;;;;;;11.02;100.00;100619.16;5112664;28;20210;-54
2021/11/06 06:18:11;;;;;;;2.08;0.40;;;;;;;10.99;100.00;100620.09;5112794;28;20050;-54
2021/11/06 06:21:14;;;;;;;2.30;0.95;;;;;;;10.99;100.00;100619.28;5121959;28;20038;-54
2021/11/06 06:24:18;;;;;;;0.32;0.25;;;;;;;10.98;100.00;100612.94;5113186;28;20112;-53
2021/11/06 06:27:20;;;;;;;2.60;0.30;;;;;;;11.00;100.00;100606.94;5112337;28;20097;-54
2021/11/06 06:30:23;;;;;;;3.22;0.95;;;;;;;10.98;100.00;100595.47;5110840;28;20034;-54
2021/11/06 06:33:26;;;;;;;6.05;0.73;;;;;;;10.96;100.00;100600.72;5112613;28;20130;-54
2021/11/06 06:36:29;;;;;;;1.13;0.47;;;;;;;10.97;100.00;100599.47;5112361;28;20112;-54
2021/11/06 06:39:33;;;;;;;0.35;0.20;;;;;;;10.96;100.00;100601.47;5112448;28;20046;-54
2021/11/06 06:42:36;;;;;;;1.25;0.80;;;;;;;10.98;100.00;100603.81;5112710;28;20038;-54
2021/11/06 06:45:39;;;;;;;2.63;0.85;;;;;;;10.99;100.00;100602.56;5113053;28;20074;-54
2021/11/06 06:48:42;;;;;;;0.43;0.43;;;;;;;10.98;100.00;100589.91;5116494;27;20379;-54
2021/11/06 06:51:45;;;;;;;0.65;0.25;;;;;;;10.97;100.00;100602.25;5116435;28;20080;-54
2021/11/06 06:54:48;;;;;;;3.92;0.55;;;;;;;11.00;100.00;100590.97;5116280;27;20454;-54
2021/11/06 06:57:51;;;;;;;3.25;0.95;;;;;;;11.02;100.00;100602.41;5115673;27;20143;-55
2021/11/06 07:00:54;;;;;;;0.90;0.55;;;;;;;11.02;100.00;100605.22;5129024;27;20477;-54
2021/11/06 07:03:57;;;;;;;0.45;0.38;;;;;;;11.02;100.00;100598.88;5132957;27;20122;-54
2021/11/06 07:07:00;;;;;;;0.82;0.50;;;;;;;10.99;100.00;100597.00;5116538;28;20078;-54
2021/11/06 07:10:05;;;;;;;0.20;0.20;;;;;;;10.96;100.00;100609.09;5116499;27;20041;-54
2021/11/06 07:13:08;;;;;;;0.98;0.40;;;;;;;10.87;100.00;100600.69;5116082;28;20050;-54
2021/11/06 07:16:12;;;;;;;2.80;0.82;;;;;;;10.85;100.00;100603.91;5115306;28;20119;-54
2021/11/06 07:19:16;;;;;;;3.58;0.30;;;;;;;10.84;100.00;100593.25;5121969;27;20034;-54
2021/11/06 07:22:19;;;;;;;2.47;0.68;;;;;;;10.78;100.00;100597.88;5132227;27;20499;-48
2021/11/06 07:25:23;;;;;;;3.33;0.95;;;;;;;10.82;100.00;100598.50;5134630;27;20046;-48
2021/11/06 07:28:26;;;;;;;0.73;0.40;;;;;;;10.47;100.00;100595.88;5126834;27;20042;-48
2021/11/06 07:31:29;;;;;;;0.30;0.30;;;;;;;10.62;100.00;100605.25;5115875;27;20078;-47
2021/11/06 07:34:32;;;;;;;0.13;0.13;;;;;;;10.01;100.00;100604.38;5116161;28;20042;-48
2021/11/06 07:37:37;;;;;;;0.45;0.45;;;;;;;10.23;100.00;100602.38;5131632;27;20046;-48
2021/11/06 07:40:41;;;;;;;0.40;0.40;;;;;;;9.80;100.00;100603.16;5115710;27;20039;-48
2021/11/06 07:43:44;;;;;;;2.28;0.47;;;;;;;10.70;100.00;100604.97;5114975;28;20065;-48
2021/11/06 07:46:47;;;;;;;1.83;0.70;;;;;;;11.09;100.00;100601.34;5115295;28;20073;-47
2021/11/06 07:49:50;;;;;;;3.25;0.93;;;;;;;11.14;100.00;100603.53;5114948;28;20177;-48
2021/11/06 07:52:53;;;;;;;2.50;0.55;;;;;;;11.18;100.00;100609.75;5115437;27;20335;-48
2021/11/06 07:55:56;;;;;;;0.20;0.20;;;;;;;11.22;100.00;100604.78;5115187;28;20074;-48
2021/11/06 07:59:00;;;;;;;3.45;0.45;;;;;;;11.26;100.00;100608.97;5102793;28;20082;-48
2021/11/06 08:02:03;;;;;;;0.10;0.10;;;;;;;11.26;100.00;100599.88;5115020;27;20062;-48
2021/11/06 08:05:08;;;;;;;0.40;0.40;;;;;;;11.35;100.00;100611.00;5115165;28;20067;-48
2021/11/06 08:08:11;;;;;;;1.25;0.50;;;;;;;11.45;100.00;100607.00;5131776;27;20046;-48
2021/11/06 08:11:14;;;;;;;1.02;0.45;;;;;;;11.44;100.00;100599.88;5114408;28;20464;-48
2021/11/06 08:14:17;;;;;;;0.45;0.43;;;;;;;11.47;100.00;100601.75;5114514;28;20080;-47
2021/11/06 08:17:20;;;;;;;0.70;0.50;;;;;;;11.50;100.00;100586.84;5114502;28;20054;-48
2021/11/06 08:20:23;;;;;;;0.65;0.40;;;;;;;11.44;100.00;100583.94;5116936;27;20441;-48
2021/11/06 08:23:27;;;;;;;3.30;1.00;;;;;;;11.38;100.00;100576.63;5122453;27;20051;-48
2021/11/06 08:26:30;;;;;;;0.22;0.22;;;;;;;11.46;100.00;100580.66;5114670;27;20078;-48
2021/11/06 08:29:33;;;;;;;0.93;0.40;;;;;;;11.48;100.00;100578.19;5114320;28;20050;-48
2021/11/06 08:32:36;;;;;;;1.33;0.38;;;;;;;11.52;100.00;100576.00;5114450;28;20073;-48
2021/11/06 08:35:39;;;;;;;1.75;0.30;;;;;;;11.53;100.00;100574.78;5116983;27;20392;-48
2021/11/06 08:38:42;;;;;;;0.50;0.30;;;;;;;11.55;100.00;100577.88;5114176;27;20053;-48
2021/11/06 08:41:49;;;;;;;0.40;0.20;;;;;;;11.51;100.00;100577.25;5113977;27;20376;-48
2021/11/06 08:44:55;;;;;;;0.20;0.20;;;;;;;11.71;100.00;100574.81;5113818;28;20046;-47
2021/11/06 08:47:58;;;;;;;0.30;0.30;;;;;;;11.50;100.00;100564.53;5113880;28;20055;-47
2021/11/06 08:51:01;;;;;;;0.10;0.10;;;;;;;11.56;100.00;100562.72;5113801;27;20078;-47
2021/11/06 08:54:04;;;;;;;0.98;0.70;;;;;;;11.65;100.00;100564.72;5113724;27;20184;-47
2021/11/06 08:57:07;;;;;;;2.35;0.85;;;;;;;11.76;100.00;100551.09;5113910;28;20426;-47
2021/11/06 09:00:25;;;;;;;0.55;0.43;;;;;;;11.82;100.00;100557.59;5113663;28;20439;-47
2021/11/06 09:03:29;;;;;;;0.90;0.50;;;;;;;11.91;100.00;100549.97;5113653;28;20062;-47
2021/11/06 09:06:34;;;;;;;5.80;0.73;;;;;;;11.93;100.00;100549.53;5100732;27;20415;-47
2021/11/06 09:09:36;;;;;;;7.78;1.27;;;;;;;12.08;100.00;100542.03;5112791;28;20038;-47
2021/11/06 09:12:40;;;;;;;8.93;1.60;;;;;;;12.29;100.00;100535.47;5113439;28;20611;-47
2021/11/06 09:15:43;;;;;;;6.82;1.20;;;;;;;12.45;100.00;100531.53;5113449;28;20122;-47
2021/11/06 09:18:46;;;;;;;1.65;0.50;;;;;;;12.61;100.00;100511.56;5113401;28;20106;-53
2021/11/06 09:21:49;;;;;;;9.10;1.85;;;;;;;12.65;100.00;100506.56;5115120;27;20046;-53
2021/11/06 09:24:55;;;;;;;3.72;1.35;;;;;;;12.60;100.00;100498.88;5113502;28;20395;-53
2021/11/06 09:27:58;;;;;;;3.67;0.75;;;;;;;12.52;100.00;100495.63;5113146;28;20403;-53
2021/11/06 09:31:01;;;;;;;1.13;0.90;;;;;;;12.51;100.00;100470.97;5113252;28;20097;-53
2021/11/06 09:34:05;;;;;;;6.32;0.80;;;;;;;12.68;100.00;100467.31;5113715;27;20042;-53
2021/11/06 09:37:09;;;;;;;3.10;0.77;;;;;;;12.76;100.00;100467.69;5113255;28;20058;-53
2021/11/06 09:40:12;;;;;;;1.95;0.50;;;;;;;12.83;100.00;100467.34;5112738;28;20046;-54
2021/11/06 09:43:16;;;;;;;1.00;0.50;;;;;;;12.89;100.00;100465.44;5113533;28;20042;-53
2021/11/06 09:46:19;;;;;;;0.20;0.20;;;;;;;12.97;100.00;100466.66;5113140;28;20050;-53
2021/11/06 09:49:22;;;;;;;0.63;0.47;;;;;;;13.12;100.00;100461.91;5113174;28;20041;-53
2021/11/06 09:52:25;;;;;;;1.80;0.32;;;;;;;13.17;100.00;100452.81;5112777;28;20161;-53
2021/11/06 09:55:31;;;;;;;0.22;0.17;;;;;;;13.28;100.00;100453.03;5113302;28;20096;-53
2021/11/06 09:58:35;;;;;;;11.65;0.88;;;;;;;13.31;100.00;100432.53;5112855;28;20514;-53
2021/11/06 10:01:38;;;;;;;0.73;0.40;;;;;;;13.29;100.00;100423.84;5112549;28;20038;-53
2021/11/06 10:04:41;;;;;;;0.82;0.40;;;;;;;13.26;100.00;100416.41;5112078;28;20038;-52
2021/11/06 10:07:44;;;;;;;2.75;0.77;;;;;;;13.41;100.00;100417.19;5112696;28;20046;-53
2021/11/06 10:10:50;;;;;;;0.93;0.40;;;;;;;13.42;100.00;100418.75;5112323;28;20077;-54
2021/11/06 10:14:02;;;;;;;0.85;0.45;;;;;;;13.49;100.00;100412.75;5112891;28;20092;-47
2021/11/06 10:17:06;;;;;;;0.55;0.40;;;;;;;13.54;100.00;100420.47;5112524;28;20062;-47
2021/11/06 10:20:30;;;;;;;0.10;0.10;;;;;;;13.61;100.00;100425.69;5100502;28;20548;-48
2021/11/06 10:23:38;;;;;;;0.88;0.30;;;;;;;13.62;100.00;100424.41;5121396;27;20050;-47
2021/11/06 10:26:41;;;;;;;0.20;0.20;;;;;;;13.52;100.00;100417.38;5116809;28;20532;-47
2021/11/06 10:30:18;;;;;;;0.85;0.85;;;;;;;13.50;100.00;100391.91;5116579;28;20050;-47
2021/11/06 10:33:22;;;;;;;0.88;0.15;;;;;;;13.49;100.00;100395.94;5116836;28;20089;-47
2021/11/06 10:36:27;;;;;;;0.10;0.10;;;;;;;13.44;100.00;100385.44;5116663;28;20100;-47
2021/11/06 10:39:30;;;;;;;2.83;0.35;;;;;;;13.47;100.00;100397.72;5116550;28;20096;-47
2021/11/06 10:42:32;;;;;;;1.00;0.80;;;;;;;13.58;100.00;100376.28;5116243;27;20031;-48
2021/11/06 10:45:42;;;;;;;3.30;0.22;;;;;;;13.69;100.00;100370.84;5115931;27;20043;-47
2021/11/06 10:48:46;;;;;;;0.73;0.22;;;;;;;13.83;100.00;100368.53;5116701;28;20138;-47
2021/11/06 10:52:08;;;;;;;1.05;0.25;;;;;;;13.92;100.00;100355.19;5103720;28;20042;-48
2021/11/06 10:55:11;;;;;;;0.10;0.10;;;;;;;14.06;100.00;100350.78;5116539;28;20041;-53
2021/11/06 10:58:26;;;;;;;0.28;0.25;;;;;;;14.16;100.00;100335.41;5116245;27;20096;-53
2021/11/06 11:01:33;;;;;;;0.30;0.10;;;;;;;14.23;100.00;100326.56;5116606;28;20083;-53
2021/11/06 11:04:38;;;;;;;1.88;0.47;;;;;;;14.34;100.00;100326.75;5115955;28;20080;-53
2021/11/06 11:07:41;;;;;;;11.05;1.15;;;;;;;14.37;100.00;100314.59;5115958;28;20050;-54
2021/11/06 11:10:45;;;;;;;0.30;0.20;;;;;;;14.32;100.00;100310.44;5115536;28;20388;-54
2021/11/06 11:14:02;;;;;;;7.10;1.20;;;;;;;14.27;100.00;100308.31;5115496;27;20186;-53
2021/11/06 11:17:05;;;;;;;7.13;0.63;;;;;;;14.23;100.00;100301.38;5115462;27;20050;-53
2021/11/06 11:20:26;;;;;;;0.63;0.10;;;;;;;14.17;100.00;100311.72;5115624;27;20041;-53
2021/11/06 11:23:29;;;;;;;1.33;0.33;;;;;;;14.16;100.00;100296.19;5124382;27;20046;-53
2021/11/06 11:26:53;;;;;;;1.95;0.35;;;;;;;14.09;100.00;100285.41;5115771;28;20267;-53
2021/11/06 11:29:56;;;;;;;0.10;0.10;;;;;;;14.11;100.00;100277.28;5115884;28;20050;-52
2021/11/06 11:33:00;;;;;;;0.17;0.17;;;;;;;14.19;100.00;100284.00;5115434;28;20087;-53
2021/11/06 11:36:05;;;;;;;2.55;0.30;;;;;;;14.29;100.00;100280.59;5115258;28;20138;-53
2021/11/06 11:39:13;;;;;;;0.17;0.17;;;;;;;14.22;100.00;100260.63;5123829;27;20395;-53
2021/11/06 11:42:43;;;;;;;0.10;0.10;;;;;;;14.18;100.00;100262.88;5118274;27;20501;-53
2021/11/06 11:46:05;;;;;;;0.20;0.15;;;;;;;13.96;100.00;100268.16;5115219;27;20082;-53
2021/11/06 11:49:09;;;;;;;0.13;0.13;;;;;;;13.94;100.00;100267.88;5115172;27;20052;-53
2021/11/06 11:52:36;;;;;;;0.30;0.20;;;;;;;13.84;100.00;100244.09;5115450;28;20131;-53
2021/11/06 11:55:46;;;;;;;1.85;0.20;;;;;;;13.82;100.00;100250.16;5115450;28;20404;-53
2021/11/06 11:58:49;;;;;;;0.57;0.20;;;;;;;13.84;100.00;100230.09;5114915;27;20054;-53
2021/11/06 12:02:19;;;;;;;4.28;0.55;;;;;;;13.81;100.00;100208.66;5115382;28;20076;-53
2021/11/06 12:05:22;;;;;;;0.38;0.38;;;;;;;13.97;100.00;100216.53;5115025;27;20132;-53
2021/11/06 12:08:28;;;;;;;0.47;0.40;;;;;;;14.03;100.00;100209.72;5114946;28;20047;-53
2021/11/06 12:11:34;;;;;;;1.00;0.52;;;;;;;14.11;100.00;100205.25;5114631;27;20571;-53
2021/11/06 12:14:44;;;;;;;0.05;0.00;;;;;;;14.11;100.00;100198.84;5121600;27;20042;-54
2021/11/06 12:17:47;;;;;;;0.10;0.10;;;;;;;14.12;100.00;100189.22;5114613;27;20045;-53
2021/11/06 12:20:50;;;;;;;0.10;0.05;;;;;;;14.14;100.00;100186.69;5120203;27;20046;-52
2021/11/06 12:23:57;;;;;;;0.30;0.30;;;;;;;14.14;100.00;100198.63;5114302;27;20091;-53
2021/11/06 12:27:04;;;;;;;1.00;0.55;;;;;;;14.15;100.00;100191.00;5113687;28;20506;-53
2021/11/06 12:30:07;;;;;;;0.45;0.45;;;;;;;14.23;100.00;100195.69;5114347;28;20039;-52
2021/11/06 12:33:10;;;;;;;0.25;0.22;;;;;;;14.23;100.00;100203.31;5113963;27;20072;-51
2021/11/06 12:36:21;;;;;;;0.17;0.15;;;;;;;14.16;100.00;100218.53;5114112;28;20412;-53
2021/11/06 12:39:54;;;;;;;0.15;0.03;;;;;;;14.14;100.00;100220.28;5114332;27;20138;-53
2021/11/06 12:43:31;;;;;;;0.25;0.10;;;;;;;14.09;100.00;100207.00;5114161;28;20442;-51
2021/11/06 12:46:37;;;;;;;4.38;0.77;;;;;;;14.25;100.00;100203.63;5114134;28;20046;-53
2021/11/06 12:49:40;;;;;;;1.00;0.13;;;;;;;14.30;100.00;100200.13;5114014;27;20130;-56
2021/11/06 12:52:43;;;;;;;3.20;0.25;;;;;;;14.35;100.00;100185.41;5113293;28;20050;-54
2021/11/06 12:55:46;;;;;;;0.10;0.03;;;;;;;14.28;100.00;100174.59;5114169;27;20080;-53
2021/11/06 12:59:14;;;;;;;0.25;0.10;;;;;;;14.24;100.00;100179.66;5113676;28;20050;-53
2021/11/06 13:02:18;;;;;;;0.38;0.25;;;;;;;14.28;100.00;100180.22;5113952;28;20119;-47
2021/11/06 13:05:22;;;;;;;0.10;0.10;;;;;;;14.30;100.00;100172.88;5113146;27;20135;-47
2021/11/06 13:08:26;;;;;;;0.95;0.22;;;;;;;14.21;100.00;100170.19;5113865;28;20185;-47
2021/11/06 13:12:02;;;;;;;0.10;0.10;;;;;;;14.50;100.00;100135.63;5113262;28;20049;-47
2021/11/06 13:15:05;;;;;;;0.43;0.43;;;;;;;14.63;100.00;100121.22;5113714;28;20051;-47
2021/11/06 13:18:13;;;;;;;0.10;0.10;;;;;;;14.64;100.00;100143.13;5113642;27;20047;-47
2021/11/06 13:21:16;;;;;;;0.10;0.00;;;;;;;14.70;100.00;100115.94;5122628;27;20038;-48
2021/11/06 13:24:19;;;;;;;0.20;0.20;;;;;;;14.38;100.00;100114.34;5112835;27;20082;-47
2021/11/06 13:27:40;;;;;;;1.55;0.28;;;;;;;14.47;100.00;100105.78;5129776;27;20099;-48
2021/11/06 13:30:48;;;;;;;0.60;0.13;;;;;;;14.54;100.00;100110.94;5113526;28;20150;-48
2021/11/06 13:33:51;;;;;;;0.30;0.20;;;;;;;14.38;100.00;100100.34;5112989;27;20092;-48
2021/11/06 13:36:53;;;;;;;2.22;0.30;;;;;;;14.30;100.00;100110.47;5112887;28;20067;-48
2021/11/06 13:40:03;;;;;;;1.85;0.10;;;;;;;14.18;100.00;100109.59;5112824;28;20519;-48
2021/11/06 13:43:31;;;;;;;1.13;0.50;;;;;;;14.27;100.00;100105.84;5122920;27;20133;-47
2021/11/06 13:46:46;;;;;;;0.40;0.10;;;;;;;14.21;100.00;100091.00;5131030;27;20047;-47
2021/11/06 13:49:49;;;;;;;0.10;0.00;;;;;;;14.06;100.00;100081.94;5130628;27;20498;-46
2021/11/06 13:52:55;;;;;;;0.10;0.10;;;;;;;13.99;100.00;100074.00;5112921;27;20046;-46
2021/11/06 13:55:58;;;;;;;0.25;0.10;;;;;;;13.97;100.00;100060.47;5119016;27;20096;-51
2021/11/06 13:59:02;;;;;;;0.10;0.10;;;;;;;14.00;100.00;100053.09;5129480;27;21376;-51
2021/11/06 14:02:08;;;;;;;0.10;0.10;;;;;;;14.03;100.00;100035.34;5107199;28;20479;-51
2021/11/06 14:05:15;;;;;;;0.52;0.47;;;;;;;14.08;100.00;100043.78;5113388;28;20491;-51
2021/11/06 14:08:18;;;;;;;0.10;0.10;;;;;;;14.08;100.00;100034.59;5113299;28;20491;-51
2021/11/06 14:11:21;;;;;;;0.40;0.28;;;;;;;14.00;100.00;100048.28;5111885;27;20042;-51